Velarde, NM (87582)

10:04 PM MST on March 04, 2015 (GMT -0700)
Velarde | Change Station
CLOSE
Current Station
Personal Weather Station
Location: Velarde, NM
Elevation: 5781 ft
Nearby Weather Stations

Elev 5781 ft 36.16 °N, 105.97 °W | Updated 3 minutes ago

Mostly Cloudy
Mostly Cloudy
33.4 °F
Feels Like 27 °F
N
8.0
Wind Variable Wind from NE
Gusts 10.0 mph

Today
High -- | Low -- °F
--% Chance of Precip.
Yesterday
High -- | Low -- °F
Precip. -- in
6:30 AM 6:01 PM
Full, 100% visible
Pressure 30.19 in
Visibility 10.0 miles
Clouds Clear
Windchill 27 °F
Dew Point 10 °F
Humidity 37%
Rainfall in
Snow Depth Not available.
UV 0 out of 12
Pollen 6.20 out of 12
Air Quality Not available.
Flu Activity Not available.
METAR KLAM 050455Z AUTO 17003KT 10SM CLR M05/M07 A3019 RMK AO2 T10511073

More Conditions Fewer Conditions

Pressure 30.19 in
Visibility 10.0 miles
Clouds Clear
Windchill 27 °F
Dew Point 10 °F
Humidity 37%
Rainfall in
Snow Depth Not available.
UV 0 out of 12
Pollen 6.20 out of 12
Air Quality Not available.
Flu Activity Not available.
METAR KLAM 050455Z AUTO 17003KT 10SM CLR M05/M07 A3019 RMK AO2 T10511073

More Conditions Fewer Conditions

10-Day Weather Forecast

Almanac

Astronomy

Mar. 04, 2015 Rise Set
Actual Time
Civil Twilight
Nautical Twilight
Astronomical Twilight
Moon
Length of Visible Light
Length of Day
Tomorrow will be .
, % of the Moon is Illuminated

Today's Extremes

State Highs State Lows

Community

WunderPhotos

Upload Photos

1,802,684 photos uploaded!

WunderBlogs® & News

Nearby

Air Quality

  Air Quality AQ Index Pollutant
Not available.

Snow Depth

Station Depth Elevation

Earthquake Activity

City Distance Mag. Time & Date
Minimum magnitude displayed is 2.5.

Coastal Water Temperatures

Place Temperature

Nearby Weather Stations